createdAt,value
2022-10-15T00:00:51.758Z,21.33
2022-10-15T00:03:18.317Z,22.57
2022-10-15T00:05:44.947Z,22.83
2022-10-15T00:08:12.865Z,22.97
2022-10-15T00:10:39.435Z,21.20
2022-10-15T00:13:06.681Z,23.10
2022-10-15T00:15:36.526Z,22.63
2022-10-15T00:18:03.052Z,21.90
2022-10-15T00:20:30.157Z,21.27
2022-10-15T00:22:56.686Z,24.13
2022-10-15T00:25:23.403Z,22.03
2022-10-15T00:27:49.881Z,22.53
2022-10-15T00:30:17.905Z,22.07
2022-10-15T00:32:44.578Z,20.80
2022-10-15T00:35:11.053Z,22.93
2022-10-15T00:37:37.496Z,24.23
2022-10-15T00:40:04.985Z,22.07
2022-10-15T00:42:32.377Z,23.00
2022-10-15T00:44:59.954Z,23.80
2022-10-15T00:47:41.166Z,21.03
2022-10-15T00:50:12.615Z,20.40
2022-10-15T00:53:01.551Z,20.40
2022-10-15T00:55:34.354Z,22.87
2022-10-15T00:58:05.462Z,21.73
2022-10-15T01:00:33.108Z,21.07
2022-10-15T01:03:00.087Z,21.90
2022-10-15T01:05:28.977Z,20.07
2022-10-15T01:07:55.659Z,19.73
2022-10-15T01:10:27.620Z,20.97
2022-10-15T01:13:04.908Z,20.43
2022-10-15T01:15:46.490Z,19.80
2022-10-15T01:18:22.374Z,18.70
2022-10-15T01:21:27.357Z,20.07
2022-10-15T01:24:22.653Z,19.13
2022-10-15T01:27:13.451Z,20.80
2022-10-15T01:30:03.913Z,18.97
2022-10-15T01:32:37.997Z,18.50
2022-10-15T01:35:20.576Z,19.47
2022-10-15T01:38:07.296Z,18.50
2022-10-15T01:40:42.613Z,19.50
2022-10-15T01:43:15.463Z,19.13
2022-10-15T01:46:14.686Z,19.33
2022-10-15T01:48:49.403Z,20.33
2022-10-15T01:51:18.095Z,19.50
2022-10-15T01:53:46.710Z,20.17
2022-10-15T01:56:18.065Z,18.27
2022-10-15T01:58:46.998Z,19.67
2022-10-15T02:01:13.800Z,18.93
2022-10-15T02:03:50.906Z,17.47
2022-10-15T02:06:39.212Z,19.33
2022-10-15T02:09:57.425Z,19.27
2022-10-15T02:12:53.164Z,19.90
2022-10-15T02:15:28.418Z,22.70
2022-10-15T02:18:04.482Z,22.67
2022-10-15T02:20:45.351Z,22.70
2022-10-15T02:23:18.814Z,23.10
2022-10-15T02:25:47.515Z,20.43
2022-10-15T02:28:17.020Z,22.23
2022-10-15T02:30:46.913Z,22.20
2022-10-15T02:33:16.139Z,20.93
2022-10-15T02:35:44.898Z,21.30
2022-10-15T02:38:15.312Z,19.70
2022-10-15T02:40:44.810Z,19.10
2022-10-15T02:43:14.041Z,19.43
2022-10-15T02:45:41.381Z,19.27
2022-10-15T02:48:08.224Z,21.73
2022-10-15T02:50:34.954Z,20.27
2022-10-15T02:53:02.642Z,20.20
2022-10-15T02:55:29.166Z,21.60
2022-10-15T02:57:55.765Z,20.10
2022-10-15T03:00:22.727Z,22.07
2022-10-15T03:02:49.501Z,22.63
2022-10-15T03:05:18.515Z,24.73
2022-10-15T03:07:45.008Z,23.70
2022-10-15T03:10:11.600Z,24.67
2022-10-15T03:12:38.371Z,23.67
2022-10-15T03:15:06.353Z,23.87
2022-10-15T03:17:33.558Z,24.90
2022-10-15T03:20:00.230Z,22.20
2022-10-15T03:22:27.469Z,24.60
2022-10-15T03:24:53.958Z,25.67
2022-10-15T03:27:26.566Z,24.60
2022-10-15T03:29:53.630Z,24.37
2022-10-15T03:32:22.080Z,23.90
2022-10-15T03:34:48.730Z,22.43
2022-10-15T03:37:17.670Z,22.20
2022-10-15T03:39:45.091Z,21.77
2022-10-15T03:42:12.204Z,20.83
2022-10-15T03:44:44.749Z,23.27
2022-10-15T03:47:14.961Z,22.40
2022-10-15T03:49:46.661Z,19.50
2022-10-15T03:52:13.830Z,21.13
2022-10-15T03:54:41.699Z,21.87
2022-10-15T03:57:09.357Z,22.00
2022-10-15T04:02:15.985Z,21.17
2022-10-15T04:04:42.666Z,19.87
2022-10-15T04:07:09.384Z,21.90
2022-10-15T04:09:36.377Z,23.03
2022-10-15T04:12:21.590Z,24.23
2022-10-15T04:14:48.624Z,22.47
2022-10-15T04:17:15.877Z,24.50
2022-10-15T04:19:44.855Z,26.20
2022-10-15T04:22:13.351Z,24.50
2022-10-15T04:24:45.869Z,26.17
2022-10-15T04:27:17.331Z,23.87
2022-10-15T04:29:44.214Z,26.83
2022-10-15T04:32:15.385Z,28.20
2022-10-15T04:34:42.832Z,27.10
2022-10-15T04:37:10.023Z,24.97
2022-10-15T04:39:37.434Z,25.80
2022-10-15T04:42:04.213Z,28.87
2022-10-15T04:44:33.050Z,26.27
2022-10-15T04:47:00.633Z,23.73
2022-10-15T04:49:41.539Z,23.33
2022-10-15T04:52:27.831Z,24.47
2022-10-15T04:54:58.568Z,24.77
2022-10-15T04:57:27.000Z,23.60
2022-10-15T04:59:57.685Z,25.80
2022-10-15T05:02:33.807Z,26.17
2022-10-15T05:05:26.893Z,24.93
2022-10-15T05:08:04.948Z,24.50
2022-10-15T05:10:52.030Z,26.00
2022-10-15T05:13:19.104Z,25.97
2022-10-15T05:15:45.634Z,26.43
2022-10-15T05:18:12.387Z,26.93
2022-10-15T05:20:48.701Z,25.87
2022-10-15T05:23:18.250Z,26.07
2022-10-15T05:25:54.212Z,25.37
2022-10-15T05:28:23.992Z,26.63
2022-10-15T05:30:50.531Z,24.57
2022-10-15T05:33:17.088Z,24.93
2022-10-15T05:35:43.768Z,26.10
2022-10-15T05:38:10.245Z,26.43
2022-10-15T05:40:39.159Z,23.17
2022-10-15T05:43:11.146Z,24.13
2022-10-15T05:45:37.693Z,22.73
2022-10-15T05:48:06.844Z,22.13
2022-10-15T05:50:34.276Z,23.13
2022-10-15T05:53:02.883Z,23.33
2022-10-15T05:55:45.182Z,22.87
2022-10-15T05:58:11.692Z,24.20
2022-10-15T06:00:39.659Z,25.77
2022-10-15T06:03:06.245Z,24.80
2022-10-15T06:05:32.921Z,25.93
2022-10-15T06:07:59.418Z,25.43
2022-10-15T06:10:28.289Z,27.33
2022-10-15T06:12:55.574Z,26.60
2022-10-15T06:15:22.256Z,27.37
2022-10-15T06:17:53.895Z,24.67
2022-10-15T06:20:20.317Z,26.57
2022-10-15T06:22:46.827Z,25.50
2022-10-15T06:25:13.698Z,26.40
2022-10-15T06:27:40.349Z,23.77
2022-10-15T06:30:08.726Z,24.60
2022-10-15T06:32:35.183Z,25.03
2022-10-15T06:35:02.179Z,25.90
2022-10-15T06:37:30.046Z,25.63
2022-10-15T06:39:58.443Z,27.20
2022-10-15T06:42:25.107Z,25.77
2022-10-15T06:44:55.084Z,26.33
2022-10-15T06:47:22.018Z,26.27
2022-10-15T06:49:49.858Z,24.80
2022-10-15T06:52:16.361Z,27.13
2022-10-15T06:54:42.895Z,26.33
2022-10-15T06:57:10.507Z,28.63
2022-10-15T06:59:40.313Z,26.90
2022-10-15T07:02:10.056Z,28.60
2022-10-15T07:04:36.700Z,27.57
2022-10-15T07:07:03.300Z,28.40
2022-10-15T07:09:30.050Z,27.20
2022-10-15T07:11:56.589Z,30.07
2022-10-15T07:14:23.082Z,29.03
2022-10-15T07:16:49.581Z,29.33
2022-10-15T07:19:16.103Z,29.43
2022-10-15T07:21:42.808Z,30.90
2022-10-15T07:24:10.795Z,27.73
2022-10-15T07:26:37.327Z,31.07
2022-10-15T07:29:04.359Z,27.30
2022-10-15T07:31:31.503Z,27.00
2022-10-15T07:33:58.018Z,28.27
2022-10-15T07:36:25.868Z,26.97
2022-10-15T07:38:52.943Z,26.80
2022-10-15T07:41:19.475Z,29.00
2022-10-15T07:43:45.969Z,27.33
2022-10-15T07:46:12.451Z,27.87
2022-10-15T07:48:38.957Z,25.60
2022-10-15T07:51:07.362Z,24.73
2022-10-15T07:53:34.297Z,28.40
2022-10-15T07:56:03.622Z,27.37
2022-10-15T07:58:34.485Z,25.80
2022-10-15T08:01:08.813Z,28.93
2022-10-15T08:03:36.102Z,29.30
2022-10-15T08:06:07.018Z,30.43
2022-10-15T08:08:34.272Z,34.70
2022-10-15T08:11:11.737Z,35.30
2022-10-15T08:13:41.600Z,34.27
2022-10-15T08:16:13.054Z,33.83
2022-10-15T08:18:40.446Z,34.70
2022-10-15T08:21:08.124Z,35.00
2022-10-15T08:23:35.783Z,32.07
2022-10-15T08:26:03.123Z,33.40
2022-10-15T08:28:30.844Z,36.63
2022-10-15T08:31:02.646Z,34.70
2022-10-15T08:33:32.453Z,35.53
2022-10-15T08:35:58.963Z,36.07
2022-10-15T08:38:25.634Z,38.53
2022-10-15T08:40:54.784Z,35.90
2022-10-15T08:43:37.334Z,37.33
2022-10-15T08:46:11.354Z,37.83
2022-10-15T08:48:50.692Z,37.73
2022-10-15T08:51:20.260Z,39.13
2022-10-15T08:53:54.207Z,38.80
2022-10-15T08:56:37.058Z,38.07
2022-10-15T08:59:25.214Z,38.93
2022-10-15T09:02:03.156Z,35.67
2022-10-15T09:04:51.224Z,36.87
2022-10-15T09:07:34.669Z,36.77
2022-10-15T09:10:17.829Z,35.47
2022-10-15T09:13:07.259Z,35.17
2022-10-15T09:15:41.168Z,35.30
2022-10-15T09:18:17.355Z,35.07
2022-10-15T09:20:44.895Z,34.37
2022-10-15T09:23:18.976Z,32.37
2022-10-15T09:25:52.027Z,32.23
2022-10-15T09:28:21.876Z,31.23
2022-10-15T09:30:53.064Z,31.60
2022-10-15T09:33:43.680Z,29.23
2022-10-15T09:36:25.545Z,28.47
2022-10-15T09:39:04.250Z,28.83
2022-10-15T09:42:03.496Z,30.63
2022-10-15T09:44:36.586Z,28.67
2022-10-15T09:47:33.989Z,26.83
2022-10-15T09:50:03.828Z,26.30
2022-10-15T09:52:52.209Z,26.00
2022-10-15T09:55:58.019Z,24.27
2022-10-15T09:58:33.771Z,25.00
2022-10-15T10:01:05.657Z,24.33
2022-10-15T10:03:36.693Z,22.93
2022-10-15T10:06:11.942Z,22.27
2022-10-15T10:08:54.735Z,20.40
2022-10-15T10:11:24.151Z,20.27
2022-10-15T10:13:59.374Z,19.07
2022-10-15T10:16:26.999Z,19.33
2022-10-15T10:19:15.478Z,19.10
2022-10-15T10:21:43.669Z,17.10
2022-10-15T10:24:26.187Z,17.97
2022-10-15T10:26:52.759Z,17.73
2022-10-15T10:29:33.625Z,16.40
2022-10-15T10:32:28.197Z,17.77
2022-10-15T10:34:55.401Z,17.07
2022-10-15T10:37:23.011Z,18.80
2022-10-15T10:39:59.333Z,18.20
2022-10-15T10:42:38.142Z,19.87
2022-10-15T10:45:18.761Z,17.70
2022-10-15T10:47:45.829Z,16.50
2022-10-15T10:50:34.588Z,15.73
2022-10-15T10:53:19.985Z,14.37
2022-10-15T10:55:46.624Z,12.60
2022-10-15T10:58:26.316Z,12.47
2022-10-15T11:00:55.518Z,12.67
2022-10-15T11:03:38.866Z,12.63
2022-10-15T11:06:35.687Z,12.53
2022-10-15T11:09:14.583Z,12.67
2022-10-15T11:12:14.023Z,12.90
2022-10-15T11:15:30.979Z,13.20
2022-10-15T11:18:28.893Z,12.27
2022-10-15T11:21:26.320Z,11.90
2022-10-15T11:24:26.012Z,11.80
2022-10-15T11:27:10.046Z,11.30
2022-10-15T11:30:03.585Z,12.40
2022-10-15T11:32:47.779Z,11.30
2022-10-15T11:35:51.683Z,13.00
2022-10-15T11:38:24.603Z,12.07
2022-10-15T11:41:15.029Z,11.07
2022-10-15T11:43:44.184Z,11.37
2022-10-15T11:46:44.243Z,10.77
2022-10-15T11:49:54.553Z,10.10
2022-10-15T11:52:37.712Z,11.20
2022-10-15T11:55:13.829Z,11.13
2022-10-15T11:57:42.537Z,10.33
2022-10-15T12:00:27.154Z,10.37
2022-10-15T12:02:55.401Z,10.33
2022-10-15T12:05:32.226Z,9.93
2022-10-15T12:07:59.425Z,10.13
2022-10-15T12:11:03.078Z,9.40
2022-10-15T12:13:56.458Z,9.40
2022-10-15T12:16:41.734Z,9.30
2022-10-15T12:19:13.911Z,8.10
2022-10-15T12:21:45.266Z,7.43
2022-10-15T12:24:39.802Z,7.73
2022-10-15T12:27:22.814Z,7.07
2022-10-15T12:29:59.982Z,7.07
2022-10-15T12:32:36.181Z,6.20
2022-10-15T12:35:06.165Z,5.97
2022-10-15T12:37:36.065Z,6.53
2022-10-15T12:40:17.846Z,5.77
2022-10-15T12:42:44.595Z,5.90
2022-10-15T12:45:22.885Z,5.30
2022-10-15T12:47:50.227Z,5.40
2022-10-15T12:50:28.274Z,5.73
2022-10-15T12:53:18.344Z,5.87
2022-10-15T12:56:28.616Z,5.80
2022-10-15T12:58:56.459Z,5.63
2022-10-15T13:01:23.011Z,5.33
2022-10-15T13:03:52.711Z,5.03
2022-10-15T13:06:22.429Z,5.17
2022-10-15T13:09:11.960Z,5.23
2022-10-15T13:11:48.819Z,5.17
2022-10-15T13:14:36.000Z,5.00
2022-10-15T13:17:14.840Z,4.83
2022-10-15T13:19:48.344Z,4.90
2022-10-15T13:22:24.919Z,5.03
2022-10-15T13:24:52.132Z,4.60
2022-10-15T13:27:37.547Z,5.10
2022-10-15T13:30:13.172Z,4.90
2022-10-15T13:32:47.767Z,5.13
2022-10-15T13:35:33.057Z,4.90
2022-10-15T13:38:00.337Z,4.40
2022-10-15T13:40:29.457Z,4.63
2022-10-15T13:43:19.439Z,4.20
2022-10-15T13:45:47.958Z,4.40
2022-10-15T13:48:22.049Z,4.50
2022-10-15T13:50:52.945Z,4.70
2022-10-15T13:53:24.376Z,4.53
2022-10-15T13:55:54.130Z,4.50
2022-10-15T13:58:29.170Z,4.80
2022-10-15T14:01:08.389Z,4.43
2022-10-15T14:03:36.790Z,4.40
2022-10-15T14:06:19.834Z,4.13
2022-10-15T14:08:48.349Z,3.87
2022-10-15T14:11:15.393Z,3.70
2022-10-15T14:13:49.052Z,3.30
2022-10-15T14:16:19.448Z,2.90
2022-10-15T14:18:49.647Z,3.00
2022-10-15T14:21:19.793Z,2.57
2022-10-15T14:23:47.689Z,2.83
2022-10-15T14:26:16.884Z,2.67
2022-10-15T14:28:50.267Z,2.70
2022-10-15T14:31:38.361Z,3.00
2022-10-15T14:34:35.561Z,2.40
2022-10-15T14:37:03.292Z,2.60
2022-10-15T14:39:32.873Z,2.33
2022-10-15T14:42:05.231Z,2.83
2022-10-15T14:44:48.388Z,2.80
2022-10-15T14:47:24.528Z,3.03
2022-10-15T14:49:59.906Z,2.33
2022-10-15T14:52:28.864Z,2.53
2022-10-15T14:55:15.848Z,2.00
2022-10-15T14:57:45.146Z,1.93
2022-10-15T15:00:24.334Z,2.20
2022-10-15T15:02:54.218Z,1.77
2022-10-15T15:05:24.061Z,1.90
2022-10-15T15:07:51.209Z,1.50
2022-10-15T15:10:18.101Z,1.50
2022-10-15T15:12:49.879Z,1.23
2022-10-15T15:15:18.344Z,1.40
2022-10-15T15:17:45.285Z,1.50
2022-10-15T15:20:12.208Z,1.40
2022-10-15T15:22:40.319Z,1.40
2022-10-15T15:25:16.709Z,1.63
2022-10-15T15:27:43.261Z,1.40
2022-10-15T15:30:40.241Z,1.33
2022-10-15T15:33:11.628Z,1.50
2022-10-15T15:35:52.699Z,1.50
2022-10-15T15:38:21.561Z,1.60
2022-10-15T15:40:49.404Z,1.70
2022-10-15T15:43:19.166Z,1.50
2022-10-15T15:45:46.486Z,1.70
2022-10-15T15:48:14.098Z,1.50
2022-10-15T15:50:41.053Z,1.50
2022-10-15T15:53:07.570Z,1.70
2022-10-15T15:55:34.054Z,1.70
2022-10-15T15:58:00.677Z,1.80
2022-10-15T16:00:27.417Z,1.90
2022-10-15T16:02:57.764Z,1.60
2022-10-15T16:05:24.995Z,1.80
2022-10-15T16:07:51.488Z,1.80
2022-10-15T16:10:18.203Z,1.70
2022-10-15T16:12:44.768Z,2.17
2022-10-15T16:15:14.493Z,1.90
2022-10-15T16:17:43.137Z,1.90
2022-10-15T16:20:10.671Z,1.80
2022-10-15T16:22:37.119Z,1.97
2022-10-15T16:25:05.580Z,3.83
2022-10-15T16:27:34.298Z,2.40
2022-10-15T16:30:01.799Z,2.30
2022-10-15T16:32:28.416Z,2.87
2022-10-15T16:34:54.877Z,2.70
2022-10-15T16:37:21.282Z,2.10
2022-10-15T16:39:47.742Z,3.00
2022-10-15T16:42:14.223Z,1.50
2022-10-15T16:44:40.782Z,2.43
2022-10-15T16:47:08.905Z,3.00
2022-10-15T16:49:35.412Z,2.70
2022-10-15T16:52:01.955Z,1.80
2022-10-15T16:54:28.493Z,1.80
2022-10-15T16:56:55.273Z,1.70
2022-10-15T16:59:22.403Z,1.90
2022-10-15T17:01:48.919Z,1.43
2022-10-15T17:04:15.384Z,2.30
2022-10-15T17:06:42.055Z,1.80
2022-10-15T17:09:08.969Z,2.10
2022-10-15T17:11:40.959Z,1.97
2022-10-15T17:14:10.502Z,1.80
2022-10-15T17:16:40.023Z,2.10
2022-10-15T17:19:07.990Z,1.83
2022-10-15T17:21:35.553Z,1.60
2022-10-15T17:24:04.942Z,1.70
2022-10-15T17:26:36.326Z,1.90
2022-10-15T17:29:03.999Z,1.70
2022-10-15T17:31:30.875Z,1.80
2022-10-15T17:34:03.939Z,1.50
2022-10-15T17:36:32.215Z,2.83
2022-10-15T17:38:59.841Z,3.20
2022-10-15T17:41:29.435Z,3.43
2022-10-15T17:43:57.580Z,4.40
2022-10-15T17:46:27.326Z,2.63
2022-10-15T17:48:55.031Z,2.87
2022-10-15T17:51:27.151Z,2.53
2022-10-15T17:53:57.630Z,1.80
2022-10-15T17:56:30.026Z,1.77
2022-10-15T17:58:58.457Z,2.17
2022-10-15T18:01:39.352Z,3.70
2022-10-15T18:04:12.914Z,2.60
2022-10-15T18:06:43.199Z,2.27
2022-10-15T18:09:12.407Z,2.10
2022-10-15T18:11:38.945Z,3.20
2022-10-15T18:14:05.543Z,3.57
2022-10-15T18:16:32.588Z,3.00
2022-10-15T18:18:59.212Z,3.10
2022-10-15T18:21:27.458Z,2.83
2022-10-15T18:23:56.478Z,3.20
2022-10-15T18:26:23.746Z,4.13
2022-10-15T18:28:51.855Z,6.47
2022-10-15T18:31:19.279Z,4.17
2022-10-15T18:33:54.794Z,7.53
2022-10-15T18:36:24.584Z,6.10
2022-10-15T18:38:51.634Z,6.40
2022-10-15T18:41:22.401Z,5.87
2022-10-15T18:43:53.508Z,4.87
2022-10-15T18:46:20.509Z,5.23
2022-10-15T18:48:47.054Z,5.37
2022-10-15T18:51:13.567Z,3.30
2022-10-15T18:53:40.185Z,2.80
2022-10-15T18:56:08.067Z,2.50
2022-10-15T18:58:34.939Z,3.37
2022-10-15T19:01:14.354Z,3.27
2022-10-15T19:03:40.944Z,3.27
2022-10-15T19:06:08.158Z,3.43
2022-10-15T19:08:34.754Z,3.47
2022-10-15T19:11:08.586Z,2.40
2022-10-15T19:13:36.496Z,2.43
2022-10-15T19:16:04.407Z,1.77
2022-10-15T19:18:32.101Z,2.20
2022-10-15T19:20:58.831Z,2.23
2022-10-15T19:23:26.313Z,2.10
2022-10-15T19:25:52.759Z,2.20
2022-10-15T19:28:19.348Z,2.40
2022-10-15T19:30:54.713Z,3.37
2022-10-15T19:33:21.260Z,3.47
2022-10-15T19:35:47.717Z,2.27
2022-10-15T19:38:14.149Z,2.50
2022-10-15T19:40:44.745Z,2.10
2022-10-15T19:43:13.851Z,2.13
2022-10-15T19:45:45.282Z,2.07
2022-10-15T19:48:14.070Z,2.20
2022-10-15T19:50:42.333Z,2.50
2022-10-15T19:53:13.823Z,2.60
2022-10-15T19:55:40.442Z,2.53
2022-10-15T19:58:07.510Z,2.70
2022-10-15T20:00:34.453Z,2.40
2022-10-15T20:03:01.645Z,2.60
2022-10-15T20:05:28.700Z,3.87
2022-10-15T20:07:56.127Z,16.23
2022-10-15T20:10:25.991Z,3.73
2022-10-15T20:12:53.407Z,3.30
2022-10-15T20:15:20.102Z,3.40
2022-10-15T20:17:47.147Z,2.80
2022-10-15T20:20:13.615Z,3.10
2022-10-15T20:22:40.179Z,2.80
2022-10-15T20:25:06.977Z,2.70
2022-10-15T20:27:33.747Z,2.20
2022-10-15T20:30:00.202Z,2.60
2022-10-15T20:32:35.718Z,2.40
2022-10-15T20:35:04.396Z,2.50
2022-10-15T20:37:30.921Z,2.00
2022-10-15T20:42:29.064Z,2.20
2022-10-15T20:44:55.894Z,2.00
2022-10-15T20:47:24.010Z,2.10
2022-10-15T20:49:53.431Z,1.80
2022-10-15T20:52:23.003Z,1.90
2022-10-15T20:54:50.986Z,1.70
2022-10-15T20:57:17.462Z,1.83
2022-10-15T20:59:44.223Z,2.10
2022-10-15T21:02:10.658Z,1.87
2022-10-15T21:04:37.108Z,1.90
2022-10-15T21:07:03.914Z,1.90
2022-10-15T21:09:30.375Z,1.83
2022-10-15T21:11:57.045Z,1.80
2022-10-15T21:14:23.779Z,3.27
2022-10-15T21:16:50.328Z,2.00
2022-10-15T21:19:16.859Z,2.23
2022-10-15T21:21:43.369Z,1.87
2022-10-15T21:24:09.808Z,1.60
2022-10-15T21:26:36.440Z,1.60
2022-10-15T21:29:03.227Z,1.50
2022-10-15T21:31:29.987Z,1.40
2022-10-15T21:33:56.999Z,1.70
2022-10-15T21:36:26.596Z,1.70
2022-10-15T21:38:58.884Z,1.63
2022-10-15T21:41:27.127Z,1.43
2022-10-15T21:43:54.006Z,1.50
2022-10-15T21:46:20.484Z,1.90
2022-10-15T21:48:47.099Z,1.50
2022-10-15T21:51:16.748Z,1.50
2022-10-15T21:53:44.059Z,1.30
2022-10-15T21:56:11.519Z,1.53
2022-10-15T21:58:39.131Z,1.50
2022-10-15T22:01:09.888Z,1.30
2022-10-15T22:03:36.800Z,1.40
2022-10-15T22:06:03.918Z,1.50
2022-10-15T22:08:31.090Z,1.67
2022-10-15T22:11:14.055Z,1.60
2022-10-15T22:13:44.936Z,1.50
2022-10-15T22:16:12.308Z,1.40
2022-10-15T22:18:39.915Z,1.40
2022-10-15T22:21:17.163Z,1.23
2022-10-15T22:23:47.633Z,1.70
2022-10-15T22:26:16.451Z,1.40
2022-10-15T22:28:44.881Z,1.60
2022-10-15T22:31:16.472Z,1.70
2022-10-15T22:33:44.646Z,1.63
2022-10-15T22:36:17.502Z,1.50
2022-10-15T22:38:45.985Z,1.70
2022-10-15T22:41:13.421Z,1.50
2022-10-15T22:43:40.280Z,1.60
2022-10-15T22:46:07.691Z,1.53
2022-10-15T22:48:39.402Z,2.07
2022-10-15T22:51:08.603Z,1.43
2022-10-15T22:53:35.194Z,1.70
2022-10-15T22:56:04.333Z,1.67
2022-10-15T22:58:31.998Z,1.40
2022-10-15T23:01:13.298Z,1.53
2022-10-15T23:03:41.575Z,1.60
2022-10-15T23:06:08.270Z,1.70
2022-10-15T23:08:35.691Z,1.73
2022-10-15T23:11:10.850Z,1.60
2022-10-15T23:13:38.798Z,1.70
2022-10-15T23:16:11.046Z,1.50
2022-10-15T23:18:37.942Z,2.03
2022-10-15T23:21:06.708Z,1.50
2022-10-15T23:23:33.415Z,1.63
2022-10-15T23:25:59.863Z,1.60
2022-10-15T23:28:26.583Z,1.30
2022-10-15T23:30:53.143Z,1.60
2022-10-15T23:33:19.595Z,1.70
2022-10-15T23:35:46.135Z,1.53
2022-10-15T23:38:13.442Z,1.40
2022-10-15T23:40:39.890Z,1.63
2022-10-15T23:43:06.356Z,1.70
2022-10-15T23:45:34.841Z,1.57
2022-10-15T23:48:03.377Z,1.80
2022-10-15T23:50:36.452Z,1.80
2022-10-15T23:53:03.357Z,1.50
2022-10-15T23:55:29.811Z,1.47
2022-10-15T23:57:56.486Z,1.43
